Time;durP1;ratioP1;P1;durP2;ratioP2;P2;SDS_P1;SDS_P2;PMS_P1;PMS_P2;Temp;Humidity;BMP_temperature;BMP_pressure;BME280_temperature;BME280_humidity;BME280_pressure;Samples;Min_cycle;Max_cycle;Signal;HPM_P1;HPM_P2
2023/10/29 00:01:15;;;;;;;;;;;15.90;99.90;;;;;;4936467;29;20391;-86
2023/10/29 00:03:40;;;;;;;;;;;15.90;99.90;;;;;;4936640;29;19914;-85
2023/10/29 00:06:06;;;;;;;;;;;15.90;99.90;;;;;;4936194;29;20435;-81
2023/10/29 00:08:32;;;;;;;;;;;15.90;99.90;;;;;;4936164;29;20290;-81
2023/10/29 00:10:57;;;;;;;;;;;15.90;99.90;;;;;;4946340;29;19910;-82
2023/10/29 00:13:25;;;;;;;;;;;15.90;99.90;;;;;;4920438;29;20375;-82
2023/10/29 00:15:50;;;;;;;;;;;15.90;99.90;;;;;;4920342;29;19914;-84
2023/10/29 00:18:19;;;;;;;;;;;15.90;99.90;;;;;;4922824;28;19912;-84
2023/10/29 00:20:45;;;;;;;;;;;15.90;99.90;;;;;;4922385;29;20378;-81
2023/10/29 00:23:10;;;;;;;;;;;16.00;99.90;;;;;;4937256;29;20326;-86
2023/10/29 00:25:36;;;;;;;;;;;16.00;99.90;;;;;;4935799;29;19951;-83
2023/10/29 00:28:01;;;;;;;;;;;16.00;99.90;;;;;;4935888;29;19911;-85
2023/10/29 00:30:27;;;;;;;;;;;16.00;99.90;;;;;;4937250;29;19910;-81
2023/10/29 00:32:52;;;;;;;;;;;16.00;99.90;;;;;;4937558;29;20070;-82
2023/10/29 00:35:18;;;;;;;;;;;16.00;99.90;;;;;;4937291;29;19907;-80
2023/10/29 00:37:43;;;;;;;;;;;16.00;99.90;;;;;;4937342;29;19918;-84
2023/10/29 00:40:09;;;;;;;;;;;16.00;99.90;;;;;;4935111;29;20374;-85
2023/10/29 00:42:35;;;;;;;;;;;16.00;99.90;;;;;;4917810;29;20264;-81
2023/10/29 00:45:01;;;;;;;;;;;16.00;99.90;;;;;;4919755;29;19923;-81
2023/10/29 00:47:27;;;;;;;;;;;15.90;99.90;;;;;;4918009;29;20398;-80
2023/10/29 00:49:52;;;;;;;;;;;16.00;99.90;;;;;;4918214;29;19918;-85
2023/10/29 00:52:18;;;;;;;;;;;16.00;99.90;;;;;;4918104;29;19911;-81
2023/10/29 00:54:44;;;;;;;;;;;16.00;99.90;;;;;;4916598;29;19911;-84
2023/10/29 00:57:10;;;;;;;;;;;15.90;99.90;;;;;;4916114;29;19955;-85
2023/10/29 00:59:36;;;;;;;;;;;16.00;99.90;;;;;;4901038;29;20438;-81
2023/10/29 01:02:02;;;;;;;;;;;16.00;99.90;;;;;;4953783;29;19906;-87
2023/10/29 01:04:27;;;;;;;;;;;15.90;99.90;;;;;;4938346;29;19910;-85
2023/10/29 01:06:53;;;;;;;;;;;16.00;99.90;;;;;;4919964;29;20298;-84
2023/10/29 01:09:18;;;;;;;;;;;16.00;99.90;;;;;;4936376;29;19910;-85
2023/10/29 01:11:44;;;;;;;;;;;15.90;99.90;;;;;;4927685;29;19911;-85
2023/10/29 01:14:09;;;;;;;;;;;15.90;99.90;;;;;;4936475;29;20387;-82
2023/10/29 01:16:35;;;;;;;;;;;15.90;99.90;;;;;;4936653;29;19907;-81
2023/10/29 01:19:00;;;;;;;;;;;16.00;99.90;;;;;;4933318;29;20404;-84
2023/10/29 01:21:27;;;;;;;;;;;16.00;99.90;;;;;;4936149;29;19911;-81
2023/10/29 01:23:53;;;;;;;;;;;16.00;99.90;;;;;;4936309;29;19914;-80
2023/10/29 01:26:18;;;;;;;;;;;16.00;99.90;;;;;;4936380;29;19911;-81
2023/10/29 01:28:44;;;;;;;;;;;15.90;99.90;;;;;;4935182;29;19910;-85
2023/10/29 01:31:10;;;;;;;;;;;15.80;99.90;;;;;;4935511;29;19906;-81
2023/10/29 01:33:36;;;;;;;;;;;15.80;99.90;;;;;;4936225;29;19907;-85
2023/10/29 01:36:02;;;;;;;;;;;15.90;99.90;;;;;;4935013;29;20370;-85
2023/10/29 01:38:27;;;;;;;;;;;15.90;99.90;;;;;;4935861;29;19915;-80
2023/10/29 01:40:52;;;;;;;;;;;15.90;99.90;;;;;;4940827;29;19906;-85
2023/10/29 01:43:18;;;;;;;;;;;15.90;99.90;;;;;;4935015;29;19907;-85
2023/10/29 01:45:43;;;;;;;;;;;16.00;99.90;;;;;;4935992;29;19985;-80
2023/10/29 01:48:09;;;;;;;;;;;16.00;99.90;;;;;;4935032;29;19907;-85
2023/10/29 01:50:38;;;;;;;;;;;15.90;99.90;;;;;;4934722;29;19907;-85
2023/10/29 01:53:03;;;;;;;;;;;15.80;99.90;;;;;;4936027;29;19907;-81
2023/10/29 01:55:29;;;;;;;;;;;15.70;99.90;;;;;;4934580;29;19918;-85
2023/10/29 01:57:54;;;;;;;;;;;15.70;99.90;;;;;;4934864;29;19906;-81
2023/10/29 02:00:20;;;;;;;;;;;15.50;99.90;;;;;;4934740;29;20386;-85
2023/10/29 02:02:47;;;;;;;;;;;15.40;99.90;;;;;;4934791;29;19914;-85
2023/10/29 02:05:13;;;;;;;;;;;15.20;99.90;;;;;;4944667;28;19931;-81
2023/10/29 02:07:38;;;;;;;;;;;15.10;99.90;;;;;;4960848;28;19915;-80
2023/10/29 02:10:05;;;;;;;;;;;15.10;99.90;;;;;;4941521;29;19933;-81
2023/10/29 02:12:31;;;;;;;;;;;15.00;99.90;;;;;;4922588;29;19929;-85
2023/10/29 02:14:56;;;;;;;;;;;14.90;99.90;;;;;;4923028;29;19907;-85
2023/10/29 02:17:25;;;;;;;;;;;14.90;99.90;;;;;;4922410;29;19970;-86
2023/10/29 02:19:55;;;;;;;;;;;14.90;99.90;;;;;;4928187;29;19907;-82
2023/10/29 02:22:22;;;;;;;;;;;14.90;99.90;;;;;;4939340;29;19930;-81
2023/10/29 02:24:47;;;;;;;;;;;14.90;99.90;;;;;;4938353;29;19906;-81
2023/10/29 02:27:13;;;;;;;;;;;14.90;99.90;;;;;;4938333;29;20279;-81
2023/10/29 02:29:38;;;;;;;;;;;14.90;99.90;;;;;;4939410;29;19958;-82
2023/10/29 02:32:04;;;;;;;;;;;15.00;99.90;;;;;;4941949;29;19974;-80
2023/10/29 02:34:30;;;;;;;;;;;15.00;99.90;;;;;;4938222;29;19911;-80
2023/10/29 02:36:55;;;;;;;;;;;15.00;99.90;;;;;;4937836;29;19907;-86
2023/10/29 02:39:21;;;;;;;;;;;15.10;99.90;;;;;;4938581;29;19914;-85
2023/10/29 02:41:46;;;;;;;;;;;15.10;99.90;;;;;;4925884;29;19966;-87
2023/10/29 02:44:12;;;;;;;;;;;15.00;99.90;;;;;;4927556;29;19908;-81
2023/10/29 02:46:37;;;;;;;;;;;15.00;99.90;;;;;;4938032;29;19911;-81
2023/10/29 02:49:03;;;;;;;;;;;14.90;99.90;;;;;;4938994;29;19954;-87
2023/10/29 02:51:29;;;;;;;;;;;14.90;99.90;;;;;;4937511;29;20290;-86
2023/10/29 02:53:54;;;;;;;;;;;14.90;99.90;;;;;;4937638;29;19907;-81
2023/10/29 02:56:20;;;;;;;;;;;14.90;99.90;;;;;;4938565;29;19906;-86
2023/10/29 02:58:45;;;;;;;;;;;14.90;99.90;;;;;;4938967;29;19907;-80
2023/10/29 03:01:15;;;;;;;;;;;15.00;99.90;;;;;;4938799;29;19907;-79
2023/10/29 03:03:41;;;;;;;;;;;15.00;99.90;;;;;;4937755;29;20001;-81
2023/10/29 03:06:07;;;;;;;;;;;15.10;99.90;;;;;;4937439;29;20062;-84
2023/10/29 03:08:33;;;;;;;;;;;15.10;99.90;;;;;;4937065;29;20278;-85
2023/10/29 03:10:59;;;;;;;;;;;15.10;99.90;;;;;;4931294;29;19906;-80
2023/10/29 03:13:24;;;;;;;;;;;15.20;99.90;;;;;;4902601;29;19907;-79
2023/10/29 03:15:50;;;;;;;;;;;15.20;99.90;;;;;;4919519;29;20422;-85
2023/10/29 03:18:16;;;;;;;;;;;15.20;99.90;;;;;;4902414;29;20002;-87
2023/10/29 03:20:41;;;;;;;;;;;15.20;99.90;;;;;;4932648;29;19923;-79
2023/10/29 03:23:07;;;;;;;;;;;15.10;99.90;;;;;;4937151;29;19913;-79
2023/10/29 03:25:32;;;;;;;;;;;15.10;99.90;;;;;;4951842;28;19926;-86
2023/10/29 03:27:58;;;;;;;;;;;15.00;99.90;;;;;;4937044;29;19953;-82
2023/10/29 03:30:23;;;;;;;;;;;15.00;99.90;;;;;;4938551;29;19907;-81
2023/10/29 03:32:49;;;;;;;;;;;15.00;99.90;;;;;;4937202;29;20286;-87
2023/10/29 03:35:15;;;;;;;;;;;14.90;99.90;;;;;;4937340;29;20362;-84
2023/10/29 03:37:41;;;;;;;;;;;14.90;99.90;;;;;;4936901;29;20397;-81
2023/10/29 03:40:07;;;;;;;;;;;14.90;99.90;;;;;;4935711;29;19918;-85
2023/10/29 03:42:33;;;;;;;;;;;14.90;99.90;;;;;;4922223;29;20298;-84
2023/10/29 03:44:58;;;;;;;;;;;14.90;99.90;;;;;;4937415;29;19907;-86
2023/10/29 03:47:24;;;;;;;;;;;14.90;99.90;;;;;;4937481;29;19911;-86
2023/10/29 03:49:49;;;;;;;;;;;14.90;99.90;;;;;;4937997;29;19950;-85
2023/10/29 03:52:15;;;;;;;;;;;14.90;99.90;;;;;;4936777;29;19913;-81
2023/10/29 03:54:41;;;;;;;;;;;14.90;99.90;;;;;;4936679;29;19978;-80
2023/10/29 03:57:07;;;;;;;;;;;15.00;99.90;;;;;;4936203;29;19911;-81
2023/10/29 03:59:34;;;;;;;;;;;15.00;99.90;;;;;;4938124;29;19906;-85
2023/10/29 04:01:59;;;;;;;;;;;15.00;99.90;;;;;;4936612;29;20370;-79
2023/10/29 04:04:25;;;;;;;;;;;15.00;99.90;;;;;;4936803;29;19958;-80
2023/10/29 04:06:50;;;;;;;;;;;15.00;99.90;;;;;;4937456;29;19914;-86
2023/10/29 04:09:16;;;;;;;;;;;15.00;99.90;;;;;;4936794;29;20051;-80
2023/10/29 04:11:41;;;;;;;;;;;14.90;99.90;;;;;;4940417;28;20382;-80
2023/10/29 04:14:07;;;;;;;;;;;14.90;99.90;;;;;;4920332;29;19911;-86
2023/10/29 04:16:33;;;;;;;;;;;14.80;99.90;;;;;;4920336;29;19953;-78
2023/10/29 04:18:58;;;;;;;;;;;14.80;99.90;;;;;;4934788;29;19919;-86
2023/10/29 04:21:24;;;;;;;;;;;14.80;99.90;;;;;;4937493;29;19907;-86
2023/10/29 04:23:50;;;;;;;;;;;14.70;99.90;;;;;;4948901;29;19907;-81
2023/10/29 04:26:15;;;;;;;;;;;14.50;99.90;;;;;;4956676;29;19910;-87
2023/10/29 04:28:41;;;;;;;;;;;14.40;99.90;;;;;;4939199;29;19907;-81
2023/10/29 04:31:06;;;;;;;;;;;14.20;99.90;;;;;;4935690;29;19910;-80
2023/10/29 04:33:32;;;;;;;;;;;14.10;99.90;;;;;;4935909;29;19910;-86
2023/10/29 04:35:58;;;;;;;;;;;14.10;99.90;;;;;;4940256;29;19898;-80
2023/10/29 04:38:24;;;;;;;;;;;14.00;99.90;;;;;;4936764;29;19910;-80
2023/10/29 04:40:50;;;;;;;;;;;14.00;99.90;;;;;;4931228;29;19907;-86
2023/10/29 04:43:16;;;;;;;;;;;14.00;99.90;;;;;;4917116;29;19989;-86
2023/10/29 04:45:41;;;;;;;;;;;13.90;99.90;;;;;;4900979;29;20015;-81
2023/10/29 04:48:07;;;;;;;;;;;13.90;99.90;;;;;;4917793;29;19934;-80
2023/10/29 04:50:32;;;;;;;;;;;13.80;99.90;;;;;;4928446;29;19914;-85
2023/10/29 04:52:58;;;;;;;;;;;13.80;99.90;;;;;;4935670;29;19907;-85
2023/10/29 04:55:24;;;;;;;;;;;13.80;99.90;;;;;;4935505;29;19986;-80
2023/10/29 04:57:49;;;;;;;;;;;13.90;99.90;;;;;;4935442;29;20034;-79
2023/10/29 05:00:15;;;;;;;;;;;13.90;99.90;;;;;;4940039;28;19906;-84
2023/10/29 05:02:40;;;;;;;;;;;13.90;99.90;;;;;;4949508;28;19910;-80
2023/10/29 05:05:06;;;;;;;;;;;14.00;99.90;;;;;;4935368;29;19910;-85
2023/10/29 05:07:33;;;;;;;;;;;14.00;99.90;;;;;;4936684;29;19966;-81
2023/10/29 05:09:58;;;;;;;;;;;14.00;99.90;;;;;;4936323;29;19906;-85
2023/10/29 05:12:24;;;;;;;;;;;14.00;99.90;;;;;;4908010;29;19914;-84
2023/10/29 05:14:51;;;;;;;;;;;14.00;99.90;;;;;;4899914;29;20366;-83
2023/10/29 05:17:17;;;;;;;;;;;14.10;99.90;;;;;;4900646;29;20491;-85
2023/10/29 05:19:44;;;;;;;;;;;14.20;99.90;;;;;;4916006;29;19922;-80
2023/10/29 05:22:09;;;;;;;;;;;14.30;99.90;;;;;;4935095;29;19919;-86
2023/10/29 05:24:35;;;;;;;;;;;14.40;99.90;;;;;;4936691;29;20401;-86
2023/10/29 05:27:00;;;;;;;;;;;14.60;99.90;;;;;;4935197;29;19914;-86
2023/10/29 05:29:27;;;;;;;;;;;14.70;99.90;;;;;;4934850;29;19934;-79
2023/10/29 05:31:53;;;;;;;;;;;14.70;99.90;;;;;;4935293;29;20259;-86
2023/10/29 05:34:18;;;;;;;;;;;14.80;99.90;;;;;;4956100;28;19937;-79
2023/10/29 05:36:44;;;;;;;;;;;14.90;99.90;;;;;;4961566;28;19919;-79
2023/10/29 05:39:10;;;;;;;;;;;15.00;99.90;;;;;;4950911;28;20382;-86
2023/10/29 05:41:35;;;;;;;;;;;15.00;99.90;;;;;;4937813;29;19958;-87
2023/10/29 05:44:02;;;;;;;;;;;15.10;99.90;;;;;;4937488;29;19995;-84
2023/10/29 05:46:27;;;;;;;;;;;15.10;99.90;;;;;;4938213;29;20373;-80
2023/10/29 05:48:53;;;;;;;;;;;15.30;99.90;;;;;;4956426;29;19997;-87
2023/10/29 05:51:19;;;;;;;;;;;15.40;99.90;;;;;;4955833;29;19906;-85
2023/10/29 05:53:44;;;;;;;;;;;15.50;99.90;;;;;;4934811;29;19911;-80
2023/10/29 05:56:10;;;;;;;;;;;15.50;99.90;;;;;;4934630;29;19907;-81
2023/10/29 05:58:35;;;;;;;;;;;15.60;99.90;;;;;;4935007;29;19930;-85
2023/10/29 06:01:01;;;;;;;;;;;15.60;99.90;;;;;;4945265;29;19906;-85
2023/10/29 06:03:27;;;;;;;;;;;15.60;99.90;;;;;;4956473;29;19911;-86
2023/10/29 06:05:54;;;;;;;;;;;15.70;99.90;;;;;;4955018;29;20012;-80
2023/10/29 06:08:21;;;;;;;;;;;15.70;99.90;;;;;;4945552;29;19910;-86
2023/10/29 06:10:47;;;;;;;;;;;15.70;99.90;;;;;;4935819;29;19953;-87
2023/10/29 06:13:12;;;;;;;;;;;15.60;99.90;;;;;;4918109;29;19975;-80
2023/10/29 06:15:37;;;;;;;;;;;15.40;99.90;;;;;;4916886;29;19907;-86
2023/10/29 06:18:06;;;;;;;;;;;15.20;99.90;;;;;;4908854;29;19967;-80
2023/10/29 06:20:32;;;;;;;;;;;15.20;99.90;;;;;;4914887;29;20438;-86
2023/10/29 06:22:58;;;;;;;;;;;14.60;99.90;;;;;;4915581;29;19998;-82
2023/10/29 06:25:24;;;;;;;;;;;14.20;99.90;;;;;;4915432;29;19907;-80
2023/10/29 06:27:50;;;;;;;;;;;14.00;99.90;;;;;;4915514;29;19914;-79
2023/10/29 06:30:16;;;;;;;;;;;14.00;99.90;;;;;;4917157;29;19951;-79
2023/10/29 06:32:42;;;;;;;;;;;13.90;99.90;;;;;;4914591;29;19915;-86
2023/10/29 06:35:08;;;;;;;;;;;13.90;99.90;;;;;;4916660;29;19914;-85
2023/10/29 06:37:33;;;;;;;;;;;13.90;99.90;;;;;;4915497;29;19971;-81
2023/10/29 06:39:59;;;;;;;;;;;13.90;99.90;;;;;;4914483;29;19919;-86
2023/10/29 06:42:24;;;;;;;;;;;13.90;99.90;;;;;;4916697;29;20268;-82
2023/10/29 06:44:50;;;;;;;;;;;14.00;99.90;;;;;;4916954;29;19911;-80
2023/10/29 06:47:15;;;;;;;;;;;14.10;99.90;;;;;;4916619;29;19915;-85
2023/10/29 06:49:42;;;;;;;;;;;14.20;99.90;;;;;;4915297;29;19908;-86
2023/10/29 06:52:07;;;;;;;;;;;14.30;99.90;;;;;;4916721;29;19911;-82
2023/10/29 06:54:33;;;;;;;;;;;14.40;99.90;;;;;;4915930;29;19914;-85
2023/10/29 06:56:59;;;;;;;;;;;14.50;99.90;;;;;;4920788;29;19907;-85
2023/10/29 06:59:24;;;;;;;;;;;14.60;99.90;;;;;;4918640;29;19907;-81
2023/10/29 07:01:50;;;;;;;;;;;14.70;99.90;;;;;;4931009;29;19917;-85
2023/10/29 07:04:16;;;;;;;;;;;14.80;99.90;;;;;;4921964;29;19997;-80
2023/10/29 07:06:42;;;;;;;;;;;14.80;99.90;;;;;;4921729;29;19918;-82
2023/10/29 07:09:07;;;;;;;;;;;14.90;99.90;;;;;;4938503;29;19911;-81
2023/10/29 07:11:33;;;;;;;;;;;15.00;99.90;;;;;;4921227;29;19907;-80
2023/10/29 07:13:58;;;;;;;;;;;15.10;99.90;;;;;;4901220;29;19955;-84
2023/10/29 07:16:24;;;;;;;;;;;15.20;99.90;;;;;;4911255;29;19939;-85
2023/10/29 07:18:50;;;;;;;;;;;15.20;99.90;;;;;;4918048;29;20387;-85
2023/10/29 07:21:15;;;;;;;;;;;15.30;99.90;;;;;;4921908;29;19915;-84
2023/10/29 07:23:41;;;;;;;;;;;15.40;99.90;;;;;;4930008;29;19918;-80
2023/10/29 07:26:07;;;;;;;;;;;15.40;99.90;;;;;;4919794;29;19922;-81
2023/10/29 07:28:34;;;;;;;;;;;15.40;99.90;;;;;;4919331;29;19907;-85
2023/10/29 07:31:01;;;;;;;;;;;15.40;99.90;;;;;;4919286;29;19907;-80
2023/10/29 07:33:27;;;;;;;;;;;15.50;99.90;;;;;;4919079;29;19911;-80
2023/10/29 07:35:52;;;;;;;;;;;15.60;99.90;;;;;;4919320;29;19914;-84
2023/10/29 07:38:18;;;;;;;;;;;15.60;99.90;;;;;;4917927;29;19994;-87
2023/10/29 07:40:43;;;;;;;;;;;15.50;99.90;;;;;;4918897;29;19915;-84
2023/10/29 07:43:09;;;;;;;;;;;15.60;99.90;;;;;;4919106;29;19958;-81
2023/10/29 07:45:34;;;;;;;;;;;15.80;99.90;;;;;;4917746;29;19963;-79
2023/10/29 07:48:00;;;;;;;;;;;15.90;99.90;;;;;;4919138;29;20295;-86
2023/10/29 07:50:26;;;;;;;;;;;16.00;99.90;;;;;;4919209;29;20367;-86
2023/10/29 07:52:52;;;;;;;;;;;16.10;99.90;;;;;;4918128;29;19911;-86
2023/10/29 07:55:17;;;;;;;;;;;16.20;99.90;;;;;;4918049;29;20392;-87
2023/10/29 07:57:43;;;;;;;;;;;16.30;99.90;;;;;;4917475;29;20450;-80
2023/10/29 08:00:14;;;;;;;;;;;16.30;99.90;;;;;;4917715;29;19962;-81
2023/10/29 08:02:41;;;;;;;;;;;16.20;99.90;;;;;;4918835;29;19911;-80
2023/10/29 08:05:06;;;;;;;;;;;16.20;99.90;;;;;;4918215;29;19913;-83
2023/10/29 08:07:32;;;;;;;;;;;16.20;99.90;;;;;;4917600;29;19911;-86
2023/10/29 08:09:57;;;;;;;;;;;16.30;99.90;;;;;;4917498;29;19913;-80
2023/10/29 08:12:23;;;;;;;;;;;16.30;99.90;;;;;;4901418;29;19907;-80
2023/10/29 08:14:49;;;;;;;;;;;16.30;99.90;;;;;;4908521;29;19907;-80
2023/10/29 08:17:17;;;;;;;;;;;16.30;99.90;;;;;;4921631;29;20264;-86
2023/10/29 08:19:46;;;;;;;;;;;16.30;99.90;;;;;;4939160;29;19933;-88
2023/10/29 08:22:12;;;;;;;;;;;16.30;99.90;;;;;;4936221;29;19929;-80
2023/10/29 08:24:38;;;;;;;;;;;16.40;99.90;;;;;;4937685;29;20001;-80
2023/10/29 08:27:06;;;;;;;;;;;16.40;99.90;;;;;;4937365;29;19919;-87
2023/10/29 08:29:31;;;;;;;;;;;16.50;99.90;;;;;;4939221;29;19910;-81
2023/10/29 08:31:57;;;;;;;;;;;16.50;99.90;;;;;;4943232;29;19971;-85
2023/10/29 08:34:22;;;;;;;;;;;16.50;99.90;;;;;;4940049;29;19962;-87
2023/10/29 08:36:48;;;;;;;;;;;16.50;99.90;;;;;;4935782;29;19917;-80
2023/10/29 08:39:14;;;;;;;;;;;16.50;99.90;;;;;;4942143;29;20298;-86
2023/10/29 08:41:39;;;;;;;;;;;16.50;99.90;;;;;;4924760;29;19914;-85
2023/10/29 08:44:05;;;;;;;;;;;16.50;99.90;;;;;;4927014;29;20342;-86
2023/10/29 08:46:31;;;;;;;;;;;16.60;99.90;;;;;;4938724;29;19921;-81
2023/10/29 08:48:56;;;;;;;;;;;16.70;99.90;;;;;;4938967;29;19906;-81
2023/10/29 08:51:22;;;;;;;;;;;16.80;99.90;;;;;;4937778;29;19913;-80
2023/10/29 08:53:47;;;;;;;;;;;16.70;99.90;;;;;;4935418;29;19910;-80
2023/10/29 08:56:14;;;;;;;;;;;16.70;99.90;;;;;;4936890;29;19907;-79
2023/10/29 08:58:39;;;;;;;;;;;16.70;99.90;;;;;;4937213;29;20001;-80
2023/10/29 09:01:12;;;;;;;;;;;16.80;99.90;;;;;;4938833;29;19960;-80
2023/10/29 09:03:37;;;;;;;;;;;17.00;99.90;;;;;;4938845;29;19910;-86
2023/10/29 09:06:03;;;;;;;;;;;17.00;99.90;;;;;;4936040;29;19910;-85
2023/10/29 09:08:37;;;;;;;;;;;17.00;99.90;;;;;;4931066;29;19961;-81
2023/10/29 09:11:03;;;;;;;;;;;17.00;99.90;;;;;;4945841;29;19913;-85
2023/10/29 09:13:28;;;;;;;;;;;16.90;99.90;;;;;;4926620;29;19954;-83
2023/10/29 09:15:54;;;;;;;;;;;16.90;99.90;;;;;;4921961;29;19911;-86
2023/10/29 09:18:20;;;;;;;;;;;16.90;99.90;;;;;;4915457;29;19942;-86
2023/10/29 09:20:46;;;;;;;;;;;16.90;99.90;;;;;;4915912;29;19922;-80
2023/10/29 09:23:15;;;;;;;;;;;17.00;99.90;;;;;;4917414;29;19907;-80
2023/10/29 09:25:44;;;;;;;;;;;17.20;99.90;;;;;;4917608;29;19918;-85
2023/10/29 09:28:11;;;;;;;;;;;17.30;99.90;;;;;;4915718;29;19914;-81
2023/10/29 09:30:37;;;;;;;;;;;17.40;99.90;;;;;;4914536;29;19918;-81
2023/10/29 09:33:02;;;;;;;;;;;17.30;99.90;;;;;;4918240;29;19911;-81
2023/10/29 09:35:28;;;;;;;;;;;17.30;99.90;;;;;;4916299;29;19980;-85
2023/10/29 09:37:54;;;;;;;;;;;17.20;99.90;;;;;;4917338;29;20398;-84
2023/10/29 09:40:19;;;;;;;;;;;17.10;99.90;;;;;;4917252;29;20327;-85
2023/10/29 09:42:50;;;;;;;;;;;17.10;99.90;;;;;;4935003;29;19907;-80
2023/10/29 09:45:18;;;;;;;;;;;16.90;99.90;;;;;;4935042;29;19907;-79
2023/10/29 09:47:43;;;;;;;;;;;16.90;99.90;;;;;;4916117;29;19919;-80
2023/10/29 09:50:09;;;;;;;;;;;17.00;99.90;;;;;;4915909;29;19918;-84
2023/10/29 09:52:35;;;;;;;;;;;17.10;99.90;;;;;;4920494;29;19970;-85
2023/10/29 09:55:02;;;;;;;;;;;17.20;99.90;;;;;;4927072;29;20017;-85
2023/10/29 09:57:30;;;;;;;;;;;17.20;99.90;;;;;;4929291;29;19918;-82
2023/10/29 09:59:56;;;;;;;;;;;17.10;99.90;;;;;;4936046;29;19954;-80
2023/10/29 10:02:22;;;;;;;;;;;17.00;99.90;;;;;;4920906;29;19918;-80
2023/10/29 10:04:48;;;;;;;;;;;16.90;99.90;;;;;;4915966;29;19917;-81
2023/10/29 10:07:13;;;;;;;;;;;17.00;99.90;;;;;;4915780;29;19911;-85
2023/10/29 10:09:55;;;;;;;;;;;17.10;99.90;;;;;;4915827;29;19915;-81
2023/10/29 10:12:20;;;;;;;;;;;17.00;99.90;;;;;;4900519;29;19944;-85
2023/10/29 10:14:47;;;;;;;;;;;17.00;99.90;;;;;;4915699;29;20403;-81
2023/10/29 10:17:13;;;;;;;;;;;17.10;99.90;;;;;;4923286;29;20002;-84
2023/10/29 10:19:39;;;;;;;;;;;17.10;99.90;;;;;;4957560;28;19915;-81
2023/10/29 10:22:05;;;;;;;;;;;17.00;99.90;;;;;;4953745;29;19906;-81
2023/10/29 10:24:43;;;;;;;;;;;16.90;99.90;;;;;;4955227;29;19957;-81
2023/10/29 10:27:09;;;;;;;;;;;16.90;99.90;;;;;;4937952;29;19983;-81
2023/10/29 10:29:35;;;;;;;;;;;17.00;99.90;;;;;;4938269;29;19918;-81
2023/10/29 10:32:02;;;;;;;;;;;17.00;99.90;;;;;;4941513;29;19906;-79
2023/10/29 10:34:29;;;;;;;;;;;17.00;99.90;;;;;;4941250;29;19906;-86
2023/10/29 10:36:58;;;;;;;;;;;16.90;99.90;;;;;;4941117;29;20285;-85
2023/10/29 10:39:26;;;;;;;;;;;16.80;99.90;;;;;;4937101;29;19921;-86
2023/10/29 10:41:52;;;;;;;;;;;16.80;99.90;;;;;;4939344;29;19946;-86
2023/10/29 10:44:21;;;;;;;;;;;16.90;99.90;;;;;;4940983;29;20322;-86
2023/10/29 10:46:47;;;;;;;;;;;17.00;99.90;;;;;;4960185;29;19965;-80
2023/10/29 10:49:13;;;;;;;;;;;17.40;99.90;;;;;;4941227;29;19953;-81
2023/10/29 10:51:39;;;;;;;;;;;17.40;99.90;;;;;;4940772;29;19910;-81
2023/10/29 10:54:05;;;;;;;;;;;17.50;99.90;;;;;;4953212;29;19918;-84
2023/10/29 10:56:35;;;;;;;;;;;17.50;99.90;;;;;;4937623;29;20294;-81
2023/10/29 10:59:07;;;;;;;;;;;17.70;99.90;;;;;;4937758;29;20282;-87
2023/10/29 11:01:34;;;;;;;;;;;17.80;99.90;;;;;;4941128;29;19907;-85
2023/10/29 11:04:01;;;;;;;;;;;17.80;99.90;;;;;;4941012;29;19906;-86
2023/10/29 11:06:27;;;;;;;;;;;18.00;99.90;;;;;;4957922;29;19914;-81
2023/10/29 11:08:53;;;;;;;;;;;18.00;99.90;;;;;;4940735;29;19913;-85
2023/10/29 11:11:20;;;;;;;;;;;17.90;99.90;;;;;;4949552;29;19938;-80
2023/10/29 11:13:46;;;;;;;;;;;17.80;99.90;;;;;;4941716;29;19907;-81
2023/10/29 11:16:24;;;;;;;;;;;17.90;99.90;;;;;;4940073;29;20009;-81
2023/10/29 11:18:50;;;;;;;;;;;17.60;99.90;;;;;;4936954;29;19915;-80
2023/10/29 11:21:35;;;;;;;;;;;17.60;99.90;;;;;;4925975;29;19945;-79
2023/10/29 11:24:17;;;;;;;;;;;17.90;99.90;;;;;;4918228;29;20303;-85
2023/10/29 11:26:43;;;;;;;;;;;18.10;99.90;;;;;;4918265;29;20001;-80
2023/10/29 11:29:08;;;;;;;;;;;18.50;99.90;;;;;;4918397;29;19907;-80
2023/10/29 11:31:34;;;;;;;;;;;18.50;99.90;;;;;;4919616;29;20343;-80
2023/10/29 11:34:05;;;;;;;;;;;18.40;99.90;;;;;;4918313;29;19918;-85
2023/10/29 11:36:35;;;;;;;;;;;18.30;99.90;;;;;;4918689;29;19954;-85
2023/10/29 11:39:16;;;;;;;;;;;18.10;99.90;;;;;;4917501;29;19922;-85
2023/10/29 11:41:42;;;;;;;;;;;18.10;99.90;;;;;;4913928;29;19975;-80
2023/10/29 11:44:20;;;;;;;;;;;18.30;99.90;;;;;;4903877;29;19918;-80
2023/10/29 11:46:57;;;;;;;;;;;18.20;99.90;;;;;;4918003;29;19911;-80
2023/10/29 11:49:23;;;;;;;;;;;17.90;99.90;;;;;;4925665;29;19899;-82
2023/10/29 11:51:56;;;;;;;;;;;18.00;99.90;;;;;;4923564;29;20363;-80
2023/10/29 11:54:22;;;;;;;;;;;18.10;99.90;;;;;;4917783;29;20260;-81
2023/10/29 11:56:48;;;;;;;;;;;18.10;99.90;;;;;;4917634;29;19967;-81
2023/10/29 11:59:14;;;;;;;;;;;18.20;99.90;;;;;;4919448;29;19907;-80
2023/10/29 12:01:41;;;;;;;;;;;18.10;99.90;;;;;;4932957;29;19954;-80
2023/10/29 12:04:07;;;;;;;;;;;18.10;99.90;;;;;;4938530;29;19907;-79
2023/10/29 12:06:38;;;;;;;;;;;18.20;99.90;;;;;;4936588;29;19926;-81
2023/10/29 12:09:19;;;;;;;;;;;18.20;99.90;;;;;;4936427;29;19906;-85
2023/10/29 12:11:46;;;;;;;;;;;18.40;99.90;;;;;;4929964;29;20010;-80
2023/10/29 12:14:11;;;;;;;;;;;18.50;99.90;;;;;;4919982;29;19911;-86
2023/10/29 12:16:37;;;;;;;;;;;18.80;99.90;;;;;;4918693;29;20006;-80
2023/10/29 12:19:02;;;;;;;;;;;19.00;99.90;;;;;;4917404;29;19919;-84
2023/10/29 12:21:28;;;;;;;;;;;19.10;99.90;;;;;;4918265;29;19963;-81
2023/10/29 12:23:57;;;;;;;;;;;18.70;99.90;;;;;;4918363;29;20291;-80
2023/10/29 12:26:23;;;;;;;;;;;18.60;99.90;;;;;;4920044;29;19911;-80
2023/10/29 12:28:49;;;;;;;;;;;18.50;99.90;;;;;;4919355;29;19966;-80
2023/10/29 12:31:23;;;;;;;;;;;19.20;99.90;;;;;;4918461;29;19907;-79
2023/10/29 12:33:55;;;;;;;;;;;19.70;99.90;;;;;;4918397;29;19907;-84
2023/10/29 12:36:23;;;;;;;;;;;20.10;99.90;;;;;;4917231;29;19907;-84
2023/10/29 12:38:49;;;;;;;;;;;19.80;99.90;;;;;;4916575;29;20301;-80
2023/10/29 12:41:15;;;;;;;;;;;19.50;99.90;;;;;;4916748;29;19907;-80
2023/10/29 12:43:41;;;;;;;;;;;18.90;99.90;;;;;;4917698;29;19907;-86
2023/10/29 12:46:08;;;;;;;;;;;19.10;99.90;;;;;;4918256;29;19969;-80
2023/10/29 12:48:34;;;;;;;;;;;18.40;99.90;;;;;;4918507;29;19969;-80
2023/10/29 12:51:00;;;;;;;;;;;18.30;99.90;;;;;;4916798;29;20387;-80
2023/10/29 12:53:27;;;;;;;;;;;18.10;99.90;;;;;;4917731;29;20318;-84
2023/10/29 12:55:52;;;;;;;;;;;18.00;99.90;;;;;;4917071;29;20431;-79
2023/10/29 12:58:18;;;;;;;;;;;17.70;99.90;;;;;;4918600;29;19907;-85
2023/10/29 13:00:44;;;;;;;;;;;17.60;99.90;;;;;;4916854;29;19914;-80
2023/10/29 13:03:09;;;;;;;;;;;17.50;99.90;;;;;;4918242;29;19907;-85
2023/10/29 13:05:35;;;;;;;;;;;18.30;99.90;;;;;;4916418;29;20393;-80
2023/10/29 13:08:01;;;;;;;;;;;18.20;99.90;;;;;;4918099;29;20272;-80
2023/10/29 13:10:26;;;;;;;;;;;18.50;99.90;;;;;;4916419;29;19961;-84
2023/10/29 13:12:52;;;;;;;;;;;18.40;99.90;;;;;;4901376;29;20424;-79
2023/10/29 13:15:21;;;;;;;;;;;18.60;99.90;;;;;;4898885;29;19911;-80
2023/10/29 13:17:46;;;;;;;;;;;18.60;99.90;;;;;;4905102;29;20299;-81
2023/10/29 13:20:12;;;;;;;;;;;18.30;99.90;;;;;;4936926;28;19899;-83
2023/10/29 13:22:40;;;;;;;;;;;18.10;99.90;;;;;;4939230;29;19921;-79
2023/10/29 13:25:06;;;;;;;;;;;18.50;99.90;;;;;;4934424;29;19907;-84
2023/10/29 13:27:31;;;;;;;;;;;18.50;99.90;;;;;;4936039;29;19921;-80
2023/10/29 13:29:58;;;;;;;;;;;18.60;99.90;;;;;;4936622;29;19917;-81
2023/10/29 13:32:24;;;;;;;;;;;19.10;99.90;;;;;;4936281;29;19906;-79
2023/10/29 13:34:51;;;;;;;;;;;19.50;99.90;;;;;;4935303;29;19906;-79
2023/10/29 13:37:18;;;;;;;;;;;19.40;99.90;;;;;;4935976;29;19907;-78
2023/10/29 13:39:44;;;;;;;;;;;18.50;99.90;;;;;;4954242;28;19898;-80
2023/10/29 13:42:09;;;;;;;;;;;18.30;99.90;;;;;;4941086;28;19911;-83
2023/10/29 13:44:38;;;;;;;;;;;18.10;99.90;;;;;;4934909;29;19961;-80
2023/10/29 13:47:04;;;;;;;;;;;18.10;99.90;;;;;;4935082;29;19914;-79
2023/10/29 13:49:30;;;;;;;;;;;18.10;99.90;;;;;;4936450;29;19906;-79
2023/10/29 13:51:56;;;;;;;;;;;18.30;99.90;;;;;;4934783;29;19977;-80
2023/10/29 13:54:22;;;;;;;;;;;18.10;99.90;;;;;;4934824;29;20438;-85
2023/10/29 13:56:47;;;;;;;;;;;18.10;99.90;;;;;;4934812;29;20322;-80
2023/10/29 13:59:16;;;;;;;;;;;18.20;99.90;;;;;;4936409;29;19914;-80
2023/10/29 14:01:42;;;;;;;;;;;18.20;99.90;;;;;;4944877;29;19915;-79
2023/10/29 14:04:08;;;;;;;;;;;18.20;99.90;;;;;;4938148;29;19917;-85
2023/10/29 14:06:33;;;;;;;;;;;18.10;99.90;;;;;;4959055;29;20338;-78
2023/10/29 14:08:59;;;;;;;;;;;18.00;99.90;;;;;;4941558;29;19913;-83
2023/10/29 14:11:25;;;;;;;;;;;18.20;99.90;;;;;;4926023;29;20383;-79